sensor_id;sensor_type;location;lat;lon;timestamp;noise_LAeq;noise_LA_min;noise_LA_max;noise_LA01;noise_LA95
45651;Laerm;31365;48.858;8.530;2023-05-10T00:02:23;40.84;36.20;44.07;;
45651;Laerm;31365;48.858;8.530;2023-05-10T00:04:51;41.04;37.12;47.12;;
45651;Laerm;31365;48.858;8.530;2023-05-10T00:07:19;41.10;37.12;53.54;;
45651;Laerm;31365;48.858;8.530;2023-05-10T00:09:49;40.75;36.91;43.77;;
45651;Laerm;31365;48.858;8.530;2023-05-10T00:12:17;40.53;36.69;45.17;;
45651;Laerm;31365;48.858;8.530;2023-05-10T00:14:45;55.79;35.66;75.72;;
45651;Laerm;31365;48.858;8.530;2023-05-10T00:17:14;41.21;37.12;59.40;;
45651;Laerm;31365;48.858;8.530;2023-05-10T00:19:42;40.86;37.12;54.39;;
45651;Laerm;31365;48.858;8.530;2023-05-10T00:22:11;54.77;37.12;74.67;;
45651;Laerm;31365;48.858;8.530;2023-05-10T00:24:39;41.88;37.32;64.40;;
45651;Laerm;31365;48.858;8.530;2023-05-10T00:27:29;56.20;37.32;78.56;;
45651;Laerm;31365;48.858;8.530;2023-05-10T00:29:57;40.35;36.45;44.39;;
45651;Laerm;31365;48.858;8.530;2023-05-10T00:32:26;40.79;35.94;49.84;;
45651;Laerm;31365;48.858;8.530;2023-05-10T00:34:55;41.82;36.20;65.86;;
45651;Laerm;31365;48.858;8.530;2023-05-10T00:37:23;41.02;37.12;48.00;;
45651;Laerm;31365;48.858;8.530;2023-05-10T00:39:51;40.62;36.45;46.71;;
45651;Laerm;31365;48.858;8.530;2023-05-10T00:42:20;54.61;37.52;73.06;;
45651;Laerm;31365;48.858;8.530;2023-05-10T00:44:50;51.79;36.20;69.96;;
45651;Laerm;31365;48.858;8.530;2023-05-10T00:47:18;41.62;37.88;55.94;;
45651;Laerm;31365;48.858;8.530;2023-05-10T00:49:47;40.71;36.20;43.99;;
45651;Laerm;31365;48.858;8.530;2023-05-10T00:52:16;41.80;37.32;64.69;;
45651;Laerm;31365;48.858;8.530;2023-05-10T00:54:44;41.14;35.66;62.81;;
45651;Laerm;31365;48.858;8.530;2023-05-10T00:57:12;40.63;36.91;43.94;;
45651;Laerm;31365;48.858;8.530;2023-05-10T00:59:41;52.49;37.52;71.35;;
45651;Laerm;31365;48.858;8.530;2023-05-10T01:02:11;40.80;36.20;53.06;;
45651;Laerm;31365;48.858;8.530;2023-05-10T01:04:40;41.62;37.32;60.19;;
45651;Laerm;31365;48.858;8.530;2023-05-10T01:07:09;40.84;37.12;51.73;;
45651;Laerm;31365;48.858;8.530;2023-05-10T01:09:37;41.08;36.20;60.04;;
45651;Laerm;31365;48.858;8.530;2023-05-10T01:12:06;40.48;36.20;43.81;;
45651;Laerm;31365;48.858;8.530;2023-05-10T01:14:35;42.11;37.12;62.92;;
45651;Laerm;31365;48.858;8.530;2023-05-10T01:17:05;56.70;36.20;78.40;;
45651;Laerm;31365;48.858;8.530;2023-05-10T01:19:36;42.32;37.12;57.78;;
45651;Laerm;31365;48.858;8.530;2023-05-10T01:22:25;40.77;37.12;45.99;;
45651;Laerm;31365;48.858;8.530;2023-05-10T01:25:22;40.71;36.20;51.31;;
45651;Laerm;31365;48.858;8.530;2023-05-10T01:28:28;61.50;37.12;80.64;;
45651;Laerm;31365;48.858;8.530;2023-05-10T01:31:22;40.60;35.04;52.91;;
45651;Laerm;31365;48.858;8.530;2023-05-10T01:34:02;40.56;36.20;47.26;;
45651;Laerm;31365;48.858;8.530;2023-05-10T01:36:43;40.65;36.45;59.54;;
45651;Laerm;31365;48.858;8.530;2023-05-10T01:39:21;40.91;35.94;61.03;;
45651;Laerm;31365;48.858;8.530;2023-05-10T01:41:58;40.66;34.69;50.95;;
45651;Laerm;31365;48.858;8.530;2023-05-10T01:44:34;40.79;36.91;50.67;;
45651;Laerm;31365;48.858;8.530;2023-05-10T01:47:10;41.27;37.32;46.18;;
45651;Laerm;31365;48.858;8.530;2023-05-10T01:49:45;40.52;37.12;43.58;;
45651;Laerm;31365;48.858;8.530;2023-05-10T01:52:18;57.14;35.94;78.98;;
45651;Laerm;31365;48.858;8.530;2023-05-10T01:54:54;40.96;37.32;50.43;;
45651;Laerm;31365;48.858;8.530;2023-05-10T01:57:46;54.49;36.91;76.82;;
45651;Laerm;31365;48.858;8.530;2023-05-10T02:00:16;40.72;35.94;47.08;;
45651;Laerm;31365;48.858;8.530;2023-05-10T02:02:52;60.95;37.32;80.56;;
45651;Laerm;31365;48.858;8.530;2023-05-10T02:05:25;41.10;37.52;45.66;;
45651;Laerm;31365;48.858;8.530;2023-05-10T02:07:56;40.71;37.12;48.74;;
45651;Laerm;31365;48.858;8.530;2023-05-10T02:10:27;63.29;37.12;83.42;;
45651;Laerm;31365;48.858;8.530;2023-05-10T02:17:39;55.00;37.32;74.80;;
45651;Laerm;31365;48.858;8.530;2023-05-10T04:36:36;64.77;40.33;80.58;;
45651;Laerm;31365;48.858;8.530;2023-05-10T04:39:04;66.56;42.09;81.46;;
45651;Laerm;31365;48.858;8.530;2023-05-10T04:41:32;65.23;42.88;78.80;;
45651;Laerm;31365;48.858;8.530;2023-05-10T04:44:01;65.88;43.19;79.95;;
45651;Laerm;31365;48.858;8.530;2023-05-10T04:46:29;66.15;42.16;79.07;;
45651;Laerm;31365;48.858;8.530;2023-05-10T04:48:58;64.66;42.41;78.42;;
45651;Laerm;31365;48.858;8.530;2023-05-10T04:51:26;65.88;42.03;85.81;;
45651;Laerm;31365;48.858;8.530;2023-05-10T04:53:55;67.50;44.43;83.19;;
45651;Laerm;31365;48.858;8.530;2023-05-10T04:56:32;66.84;42.82;82.81;;
45651;Laerm;31365;48.858;8.530;2023-05-10T04:59:00;66.90;41.75;86.53;;
45651;Laerm;31365;48.858;8.530;2023-05-10T05:01:29;66.74;44.51;80.22;;
45651;Laerm;31365;48.858;8.530;2023-05-10T05:03:58;63.49;40.89;76.79;;
45651;Laerm;31365;48.858;8.530;2023-05-10T05:06:27;62.67;39.21;74.79;;
45651;Laerm;31365;48.858;8.530;2023-05-10T05:08:56;67.23;45.45;78.61;;
45651;Laerm;31365;48.858;8.530;2023-05-10T05:13:53;66.29;42.24;79.38;;
45651;Laerm;31365;48.858;8.530;2023-05-10T05:16:21;66.15;43.90;83.48;;
45651;Laerm;31365;48.858;8.530;2023-05-10T05:18:49;65.34;41.53;78.92;;
45651;Laerm;31365;48.858;8.530;2023-05-10T05:21:19;67.25;43.14;80.44;;
45651;Laerm;31365;48.858;8.530;2023-05-10T05:23:48;66.95;46.10;81.40;;
45651;Laerm;31365;48.858;8.530;2023-05-10T05:26:17;67.62;48.03;82.72;;
45651;Laerm;31365;48.858;8.530;2023-05-10T05:28:45;65.53;44.35;80.01;;
45651;Laerm;31365;48.858;8.530;2023-05-10T05:31:16;64.09;41.53;79.70;;
45651;Laerm;31365;48.858;8.530;2023-05-10T05:33:44;66.00;46.95;79.64;;
45651;Laerm;31365;48.858;8.530;2023-05-10T05:36:12;66.49;43.44;82.94;;
45651;Laerm;31365;48.858;8.530;2023-05-10T05:38:40;66.20;43.29;78.56;;
45651;Laerm;31365;48.858;8.530;2023-05-10T05:41:09;64.41;45.17;79.09;;
45651;Laerm;31365;48.858;8.530;2023-05-10T05:43:38;66.35;41.96;84.13;;
45651;Laerm;31365;48.858;8.530;2023-05-10T05:46:07;65.81;42.71;80.91;;
45651;Laerm;31365;48.858;8.530;2023-05-10T05:48:35;66.77;49.25;79.17;;
45651;Laerm;31365;48.858;8.530;2023-05-10T05:51:03;66.87;43.09;82.24;;
45651;Laerm;31365;48.858;8.530;2023-05-10T05:53:33;65.64;41.96;78.81;;
45651;Laerm;31365;48.858;8.530;2023-05-10T05:56:02;65.40;44.19;82.69;;
45651;Laerm;31365;48.858;8.530;2023-05-10T05:58:30;64.89;43.39;78.67;;
45651;Laerm;31365;48.858;8.530;2023-05-10T06:01:00;66.11;44.58;79.15;;
45651;Laerm;31365;48.858;8.530;2023-05-10T06:03:29;65.40;46.33;79.22;;
45651;Laerm;31365;48.858;8.530;2023-05-10T06:05:57;63.18;41.75;76.64;;
45651;Laerm;31365;48.858;8.530;2023-05-10T06:08:26;66.66;44.76;81.11;;
45651;Laerm;31365;48.858;8.530;2023-05-10T06:10:54;63.73;44.31;77.00;;
45651;Laerm;31365;48.858;8.530;2023-05-10T06:13:23;65.36;44.11;89.86;;
45651;Laerm;31365;48.858;8.530;2023-05-10T06:15:51;64.68;43.14;78.34;;
45651;Laerm;31365;48.858;8.530;2023-05-10T06:18:21;65.56;43.49;84.70;;
45651;Laerm;31365;48.858;8.530;2023-05-10T06:20:49;65.45;44.15;79.97;;
45651;Laerm;31365;48.858;8.530;2023-05-10T06:23:18;65.02;44.07;81.08;;
45651;Laerm;31365;48.858;8.530;2023-05-10T06:25:46;64.61;44.80;80.26;;
45651;Laerm;31365;48.858;8.530;2023-05-10T06:28:14;64.54;43.63;81.06;;
45651;Laerm;31365;48.858;8.530;2023-05-10T06:30:43;64.91;42.03;79.85;;
45651;Laerm;31365;48.858;8.530;2023-05-10T06:33:11;62.06;43.94;76.44;;
45651;Laerm;31365;48.858;8.530;2023-05-10T06:35:41;66.46;43.49;82.25;;
45651;Laerm;31365;48.858;8.530;2023-05-10T06:38:09;64.70;42.41;79.53;;
45651;Laerm;31365;48.858;8.530;2023-05-10T06:40:41;61.46;40.43;76.07;;
45651;Laerm;31365;48.858;8.530;2023-05-10T06:45:38;64.28;42.03;78.57;;
45651;Laerm;31365;48.858;8.530;2023-05-10T06:48:08;63.96;40.71;80.86;;
45651;Laerm;31365;48.858;8.530;2023-05-10T06:50:36;64.65;42.53;80.22;;
45651;Laerm;31365;48.858;8.530;2023-05-10T06:53:05;62.46;42.76;75.82;;
45651;Laerm;31365;48.858;8.530;2023-05-10T06:55:34;62.69;43.14;78.42;;
45651;Laerm;31365;48.858;8.530;2023-05-10T06:58:03;68.43;41.68;88.14;;
45651;Laerm;31365;48.858;8.530;2023-05-10T07:00:31;64.25;41.22;81.13;;
45651;Laerm;31365;48.858;8.530;2023-05-10T07:03:00;68.18;43.19;84.67;;
45651;Laerm;31365;48.858;8.530;2023-05-10T07:05:28;63.30;40.03;81.79;;
45651;Laerm;31365;48.858;8.530;2023-05-10T07:07:56;60.88;39.46;75.74;;
45651;Laerm;31365;48.858;8.530;2023-05-10T07:10:26;66.58;40.80;91.13;;
45651;Laerm;31365;48.858;8.530;2023-05-10T07:12:54;65.04;42.09;77.47;;
45651;Laerm;31365;48.858;8.530;2023-05-10T07:15:22;64.66;45.86;78.44;;
45651;Laerm;31365;48.858;8.530;2023-05-10T07:17:51;66.37;42.09;80.94;;
45651;Laerm;31365;48.858;8.530;2023-05-10T07:20:19;60.55;41.75;75.98;;
45651;Laerm;31365;48.858;8.530;2023-05-10T07:22:47;63.19;39.92;74.96;;
45651;Laerm;31365;48.858;8.530;2023-05-10T07:25:16;64.29;49.49;81.17;;
45651;Laerm;31365;48.858;8.530;2023-05-10T07:27:46;65.11;47.55;79.42;;
45651;Laerm;31365;48.858;8.530;2023-05-10T07:30:15;64.30;50.88;76.83;;
45651;Laerm;31365;48.858;8.530;2023-05-10T07:32:44;65.71;45.97;83.55;;
45651;Laerm;31365;48.858;8.530;2023-05-10T07:35:12;63.47;43.86;77.63;;
45651;Laerm;31365;48.858;8.530;2023-05-10T07:37:41;62.71;44.39;79.56;;
45651;Laerm;31365;48.858;8.530;2023-05-10T07:40:10;63.34;43.24;77.24;;
45651;Laerm;31365;48.858;8.530;2023-05-10T07:42:38;62.58;41.68;77.48;;
45651;Laerm;31365;48.858;8.530;2023-05-10T07:45:09;63.00;41.82;76.94;;
45651;Laerm;31365;48.858;8.530;2023-05-10T07:47:38;63.68;42.88;77.25;;
45651;Laerm;31365;48.858;8.530;2023-05-10T07:50:07;64.33;41.46;78.73;;
45651;Laerm;31365;48.858;8.530;2023-05-10T07:52:36;62.51;42.53;76.25;;
45651;Laerm;31365;48.858;8.530;2023-05-10T07:55:06;66.41;43.99;89.01;;
45651;Laerm;31365;48.858;8.530;2023-05-10T07:57:35;63.98;43.54;76.75;;
45651;Laerm;31365;48.858;8.530;2023-05-10T08:00:05;62.90;41.96;77.55;;
45651;Laerm;31365;48.858;8.530;2023-05-10T08:02:40;65.49;42.29;81.74;;
45651;Laerm;31365;48.858;8.530;2023-05-10T08:05:09;65.38;41.14;78.32;;
45651;Laerm;31365;48.858;8.530;2023-05-10T08:07:38;66.21;41.14;86.12;;
45651;Laerm;31365;48.858;8.530;2023-05-10T08:10:08;61.90;40.98;75.91;;
45651;Laerm;31365;48.858;8.530;2023-05-10T08:12:38;65.22;39.58;82.78;;
45651;Laerm;31365;48.858;8.530;2023-05-10T08:15:08;63.61;42.88;77.60;;
45651;Laerm;31365;48.858;8.530;2023-05-10T08:17:36;63.58;43.49;76.52;;
45651;Laerm;31365;48.858;8.530;2023-05-10T08:20:07;61.95;40.89;75.21;;
45651;Laerm;31365;48.858;8.530;2023-05-10T08:22:35;63.72;41.14;79.28;;
45651;Laerm;31365;48.858;8.530;2023-05-10T08:25:05;64.38;42.09;78.52;;
45651;Laerm;31365;48.858;8.530;2023-05-10T08:27:33;66.82;41.30;86.45;;
45651;Laerm;31365;48.858;8.530;2023-05-10T08:30:02;61.26;39.46;80.11;;
45651;Laerm;31365;48.858;8.530;2023-05-10T08:32:31;63.20;41.82;76.55;;
45651;Laerm;31365;48.858;8.530;2023-05-10T08:34:59;68.15;42.41;86.87;;
45651;Laerm;31365;48.858;8.530;2023-05-10T08:37:31;65.63;45.01;80.48;;
45651;Laerm;31365;48.858;8.530;2023-05-10T08:40:00;63.49;43.09;78.44;;
45651;Laerm;31365;48.858;8.530;2023-05-10T08:42:34;62.11;39.81;77.35;;
45651;Laerm;31365;48.858;8.530;2023-05-10T08:45:04;64.77;41.14;82.45;;
45651;Laerm;31365;48.858;8.530;2023-05-10T08:47:36;67.30;45.23;85.75;;
45651;Laerm;31365;48.858;8.530;2023-05-10T08:50:07;61.91;41.53;77.98;;
45651;Laerm;31365;48.858;8.530;2023-05-10T08:52:40;65.24;41.89;79.87;;
45651;Laerm;31365;48.858;8.530;2023-05-10T08:55:09;65.31;42.09;80.50;;
45651;Laerm;31365;48.858;8.530;2023-05-10T08:57:38;62.84;41.46;81.06;;
45651;Laerm;31365;48.858;8.530;2023-05-10T09:00:07;63.42;39.46;83.13;;
45651;Laerm;31365;48.858;8.530;2023-05-10T09:02:37;63.92;39.58;77.86;;
45651;Laerm;31365;48.858;8.530;2023-05-10T09:05:07;62.91;41.75;77.49;;
45651;Laerm;31365;48.858;8.530;2023-05-10T09:07:37;63.85;40.80;83.10;;
45651;Laerm;31365;48.858;8.530;2023-05-10T09:10:06;67.95;42.09;88.00;;
45651;Laerm;31365;48.858;8.530;2023-05-10T09:12:36;63.02;39.92;76.76;;
45651;Laerm;31365;48.858;8.530;2023-05-10T09:15:07;63.94;42.13;78.67;;
45651;Laerm;31365;48.858;8.530;2023-05-10T09:17:35;59.54;39.92;74.60;;
45651;Laerm;31365;48.858;8.530;2023-05-10T09:20:06;61.77;38.81;75.39;;
45651;Laerm;31365;48.858;8.530;2023-05-10T09:22:35;63.24;42.41;74.41;;
45651;Laerm;31365;48.858;8.530;2023-05-10T09:25:06;62.77;39.08;77.63;;
45651;Laerm;31365;48.858;8.530;2023-05-10T09:27:36;63.91;38.95;83.14;;
45651;Laerm;31365;48.858;8.530;2023-05-10T09:30:07;63.51;38.52;80.40;;
45651;Laerm;31365;48.858;8.530;2023-05-10T09:32:40;63.63;42.58;75.63;;
45651;Laerm;31365;48.858;8.530;2023-05-10T09:35:11;60.71;39.21;76.54;;
45651;Laerm;31365;48.858;8.530;2023-05-10T09:37:42;63.48;39.21;82.69;;
45651;Laerm;31365;48.858;8.530;2023-05-10T09:40:15;64.53;42.53;81.28;;
45651;Laerm;31365;48.858;8.530;2023-05-10T09:42:52;66.59;39.92;84.43;;
45651;Laerm;31365;48.858;8.530;2023-05-10T09:45:22;62.95;39.46;76.26;;
45651;Laerm;31365;48.858;8.530;2023-05-10T09:47:50;65.41;40.89;83.04;;
45651;Laerm;31365;48.858;8.530;2023-05-10T09:50:19;62.93;41.53;76.17;;
45651;Laerm;31365;48.858;8.530;2023-05-10T09:52:50;62.90;40.33;77.69;;
45651;Laerm;31365;48.858;8.530;2023-05-10T09:55:22;64.31;41.82;79.04;;
45651;Laerm;31365;48.858;8.530;2023-05-10T09:58:01;61.04;39.92;75.60;;
45651;Laerm;31365;48.858;8.530;2023-05-10T10:00:35;63.01;43.90;76.81;;
45651;Laerm;31365;48.858;8.530;2023-05-10T10:03:04;64.51;41.68;80.96;;
45651;Laerm;31365;48.858;8.530;2023-05-10T10:05:35;66.79;41.38;85.21;;
45651;Laerm;31365;48.858;8.530;2023-05-10T10:08:04;63.83;42.53;79.01;;
45651;Laerm;31365;48.858;8.530;2023-05-10T10:10:34;63.72;43.09;81.73;;
45651;Laerm;31365;48.858;8.530;2023-05-10T10:13:03;63.76;41.89;78.71;;
45651;Laerm;31365;48.858;8.530;2023-05-10T10:15:33;63.93;42.98;80.81;;
45651;Laerm;31365;48.858;8.530;2023-05-10T10:18:02;62.00;41.46;77.91;;
45651;Laerm;31365;48.858;8.530;2023-05-10T10:20:31;61.10;39.46;75.11;;
45651;Laerm;31365;48.858;8.530;2023-05-10T10:23:00;63.78;41.14;80.21;;
45651;Laerm;31365;48.858;8.530;2023-05-10T10:25:28;63.97;44.35;90.75;;
45651;Laerm;31365;48.858;8.530;2023-05-10T10:28:15;62.36;44.03;77.21;;
45651;Laerm;31365;48.858;8.530;2023-05-10T10:30:48;63.31;42.88;76.12;;
45651;Laerm;31365;48.858;8.530;2023-05-10T10:33:55;61.51;40.62;79.14;;
45651;Laerm;31365;48.858;8.530;2023-05-10T10:36:25;62.58;38.95;77.40;;
45651;Laerm;31365;48.858;8.530;2023-05-10T10:38:59;62.60;40.80;79.06;;
45651;Laerm;31365;48.858;8.530;2023-05-10T10:41:31;66.40;41.38;88.89;;
45651;Laerm;31365;48.858;8.530;2023-05-10T10:44:33;66.00;41.53;86.15;;
45651;Laerm;31365;48.858;8.530;2023-05-10T10:47:06;63.65;41.61;76.49;;
45651;Laerm;31365;48.858;8.530;2023-05-10T10:49:48;59.20;39.21;76.81;;
45651;Laerm;31365;48.858;8.530;2023-05-10T10:52:24;63.18;42.82;76.46;;
45651;Laerm;31365;48.858;8.530;2023-05-10T10:55:02;62.55;42.22;76.97;;
45651;Laerm;31365;48.858;8.530;2023-05-10T10:57:44;62.48;42.16;76.07;;
45651;Laerm;31365;48.858;8.530;2023-05-10T11:00:28;62.86;42.88;78.38;;
45651;Laerm;31365;48.858;8.530;2023-05-10T11:03:00;64.50;50.70;81.89;;
45651;Laerm;31365;48.858;8.530;2023-05-10T11:05:38;61.24;50.65;74.03;;
45651;Laerm;31365;48.858;8.530;2023-05-10T11:08:17;66.39;50.68;83.99;;
45651;Laerm;31365;48.858;8.530;2023-05-10T11:11:05;64.25;50.98;78.65;;
45651;Laerm;31365;48.858;8.530;2023-05-10T11:13:42;65.55;49.58;80.48;;
45651;Laerm;31365;48.858;8.530;2023-05-10T11:16:17;64.39;50.36;82.89;;
45651;Laerm;31365;48.858;8.530;2023-05-10T11:19:01;64.75;49.62;77.57;;
45651;Laerm;31365;48.858;8.530;2023-05-10T11:21:31;62.34;42.59;80.91;;
45651;Laerm;31365;48.858;8.530;2023-05-10T11:24:01;64.00;43.77;75.60;;
45651;Laerm;31365;48.858;8.530;2023-05-10T11:26:35;65.63;40.43;80.78;;
45651;Laerm;31365;48.858;8.530;2023-05-10T11:29:04;59.36;39.58;75.04;;
45651;Laerm;31365;48.858;8.530;2023-05-10T11:31:34;63.15;41.75;81.06;;
45651;Laerm;31365;48.858;8.530;2023-05-10T11:34:02;65.04;42.35;77.18;;
45651;Laerm;31365;48.858;8.530;2023-05-10T11:36:36;64.80;41.53;84.15;;
45651;Laerm;31365;48.858;8.530;2023-05-10T11:39:04;65.63;43.86;79.61;;
45651;Laerm;31365;48.858;8.530;2023-05-10T11:41:33;66.15;42.16;90.46;;
45651;Laerm;31365;48.858;8.530;2023-05-10T11:46:30;63.71;41.82;79.09;;
45651;Laerm;31365;48.858;8.530;2023-05-10T11:49:00;65.65;43.04;82.22;;
45651;Laerm;31365;48.858;8.530;2023-05-10T11:51:34;64.58;42.98;77.74;;
45651;Laerm;31365;48.858;8.530;2023-05-10T11:54:07;65.89;41.14;88.63;;
45651;Laerm;31365;48.858;8.530;2023-05-10T11:56:37;65.43;40.03;83.74;;
45651;Laerm;31365;48.858;8.530;2023-05-10T11:59:05;65.55;39.81;80.27;;
45651;Laerm;31365;48.858;8.530;2023-05-10T12:01:34;65.71;42.76;82.18;;
45651;Laerm;31365;48.858;8.530;2023-05-10T12:04:04;65.31;44.73;81.44;;
45651;Laerm;31365;48.858;8.530;2023-05-10T12:06:39;62.65;42.09;74.40;;
45651;Laerm;31365;48.858;8.530;2023-05-10T12:09:08;59.47;40.53;73.23;;
45651;Laerm;31365;48.858;8.530;2023-05-10T12:11:39;64.22;41.61;77.25;;
45651;Laerm;31365;48.858;8.530;2023-05-10T12:14:10;66.40;41.53;86.77;;
45651;Laerm;31365;48.858;8.530;2023-05-10T12:16:38;61.37;39.21;74.00;;
45651;Laerm;31365;48.858;8.530;2023-05-10T12:19:08;64.10;43.77;76.26;;
45651;Laerm;31365;48.858;8.530;2023-05-10T12:21:37;64.05;40.71;79.14;;
45651;Laerm;31365;48.858;8.530;2023-05-10T12:24:05;65.55;40.71;80.64;;
45651;Laerm;31365;48.858;8.530;2023-05-10T12:26:35;64.10;42.22;80.67;;
45651;Laerm;31365;48.858;8.530;2023-05-10T12:29:14;62.78;41.14;76.86;;
45651;Laerm;31365;48.858;8.530;2023-05-10T12:31:52;65.14;41.14;80.85;;
45651;Laerm;31365;48.858;8.530;2023-05-10T12:34:26;63.26;42.93;76.28;;
45651;Laerm;31365;48.858;8.530;2023-05-10T12:36:55;64.60;40.23;84.94;;
45651;Laerm;31365;48.858;8.530;2023-05-10T12:39:24;63.08;42.74;77.06;;
45651;Laerm;31365;48.858;8.530;2023-05-10T12:41:52;68.35;44.97;87.38;;
45651;Laerm;31365;48.858;8.530;2023-05-10T12:44:20;64.05;44.19;78.66;;
45651;Laerm;31365;48.858;8.530;2023-05-10T12:46:48;67.60;43.72;83.68;;
45651;Laerm;31365;48.858;8.530;2023-05-10T12:49:16;63.18;40.80;75.23;;
45651;Laerm;31365;48.858;8.530;2023-05-10T12:51:47;63.06;42.53;75.18;;
45651;Laerm;31365;48.858;8.530;2023-05-10T12:54:15;63.62;40.53;78.15;;
45651;Laerm;31365;48.858;8.530;2023-05-10T12:56:43;66.78;41.22;83.38;;
45651;Laerm;31365;48.858;8.530;2023-05-10T12:59:11;63.45;41.14;80.00;;
45651;Laerm;31365;48.858;8.530;2023-05-10T13:01:39;66.47;42.71;82.41;;
45651;Laerm;31365;48.858;8.530;2023-05-10T13:06:36;69.42;42.35;89.90;;
45651;Laerm;31365;48.858;8.530;2023-05-10T13:09:06;63.36;41.38;77.19;;
45651;Laerm;31365;48.858;8.530;2023-05-10T13:11:34;63.88;42.65;80.13;;
45651;Laerm;31365;48.858;8.530;2023-05-10T13:14:03;62.92;43.72;74.93;;
45651;Laerm;31365;48.858;8.530;2023-05-10T13:16:31;65.50;45.63;83.49;;
45651;Laerm;31365;48.858;8.530;2023-05-10T13:19:00;62.62;43.19;76.43;;
45651;Laerm;31365;48.858;8.530;2023-05-10T13:21:28;61.44;41.14;76.48;;
45651;Laerm;31365;48.858;8.530;2023-05-10T13:23:57;64.43;43.29;77.56;;
45651;Laerm;31365;48.858;8.530;2023-05-10T13:26:26;63.91;42.53;77.75;;
45651;Laerm;31365;48.858;8.530;2023-05-10T13:28:54;64.94;43.72;81.89;;
45651;Laerm;31365;48.858;8.530;2023-05-10T13:31:23;64.27;42.59;83.21;;
45651;Laerm;31365;48.858;8.530;2023-05-10T13:33:51;63.14;42.47;77.61;;
45651;Laerm;31365;48.858;8.530;2023-05-10T13:36:20;65.06;43.24;80.41;;
45651;Laerm;31365;48.858;8.530;2023-05-10T13:38:49;64.88;41.30;83.42;;
45651;Laerm;31365;48.858;8.530;2023-05-10T13:41:17;65.46;43.90;79.50;;
45651;Laerm;31365;48.858;8.530;2023-05-10T13:43:47;62.27;43.58;75.80;;
45651;Laerm;31365;48.858;8.530;2023-05-10T13:46:15;65.05;40.80;76.48;;
45651;Laerm;31365;48.858;8.530;2023-05-10T13:48:43;68.30;44.39;80.60;;
45651;Laerm;31365;48.858;8.530;2023-05-10T13:51:11;65.97;43.19;83.61;;
45651;Laerm;31365;48.858;8.530;2023-05-10T13:53:39;66.57;40.43;80.87;;
45651;Laerm;31365;48.858;8.530;2023-05-10T13:56:08;70.96;42.82;90.68;;
45651;Laerm;31365;48.858;8.530;2023-05-10T13:58:36;61.81;40.71;75.55;;
45651;Laerm;31365;48.858;8.530;2023-05-10T14:01:05;63.87;45.17;76.78;;
45651;Laerm;31365;48.858;8.530;2023-05-10T14:03:33;64.78;43.24;75.89;;
45651;Laerm;31365;48.858;8.530;2023-05-10T14:06:02;63.58;44.35;78.79;;
45651;Laerm;31365;48.858;8.530;2023-05-10T14:08:31;63.86;45.27;75.91;;
45651;Laerm;31365;48.858;8.530;2023-05-10T14:11:00;62.04;43.58;76.86;;
45651;Laerm;31365;48.858;8.530;2023-05-10T14:13:29;65.64;44.23;76.05;;
45651;Laerm;31365;48.858;8.530;2023-05-10T14:15:57;62.42;43.63;74.20;;
45651;Laerm;31365;48.858;8.530;2023-05-10T14:18:28;65.25;45.17;78.71;;
45651;Laerm;31365;48.858;8.530;2023-05-10T14:20:57;64.77;41.75;79.55;;
45651;Laerm;31365;48.858;8.530;2023-05-10T14:23:26;66.53;44.19;87.70;;
45651;Laerm;31365;48.858;8.530;2023-05-10T14:25:56;69.97;41.75;89.32;;
45651;Laerm;31365;48.858;8.530;2023-05-10T14:28:24;64.43;46.50;77.03;;
45651;Laerm;31365;48.858;8.530;2023-05-10T14:30:53;62.87;43.81;75.90;;
45651;Laerm;31365;48.858;8.530;2023-05-10T14:33:21;65.62;42.53;81.45;;
45651;Laerm;31365;48.858;8.530;2023-05-10T14:35:51;63.99;44.27;76.75;;
45651;Laerm;31365;48.858;8.530;2023-05-10T14:38:19;65.34;45.11;77.99;;
45651;Laerm;31365;48.858;8.530;2023-05-10T14:40:47;64.19;41.14;79.44;;
45651;Laerm;31365;48.858;8.530;2023-05-10T14:43:16;65.23;44.23;77.35;;
45651;Laerm;31365;48.858;8.530;2023-05-10T14:45:44;64.85;43.44;74.79;;
45651;Laerm;31365;48.858;8.530;2023-05-10T14:48:14;65.58;44.11;78.29;;
45651;Laerm;31365;48.858;8.530;2023-05-10T14:50:45;63.90;41.03;76.34;;
45651;Laerm;31365;48.858;8.530;2023-05-10T14:53:16;66.25;50.49;76.69;;
45651;Laerm;31365;48.858;8.530;2023-05-10T14:55:44;65.46;47.42;79.95;;
45651;Laerm;31365;48.858;8.530;2023-05-10T14:58:13;63.89;46.91;76.24;;
45651;Laerm;31365;48.858;8.530;2023-05-10T15:00:41;66.68;46.73;86.68;;
45651;Laerm;31365;48.858;8.530;2023-05-10T15:03:10;65.34;46.18;77.69;;
45651;Laerm;31365;48.858;8.530;2023-05-10T15:05:39;65.25;47.61;79.60;;
45651;Laerm;31365;48.858;8.530;2023-05-10T15:08:07;64.86;48.67;76.29;;
45651;Laerm;31365;48.858;8.530;2023-05-10T15:10:37;63.33;46.50;77.06;;
45651;Laerm;31365;48.858;8.530;2023-05-10T15:13:06;64.98;43.94;78.51;;
45651;Laerm;31365;48.858;8.530;2023-05-10T15:15:34;64.24;42.59;77.71;;
45651;Laerm;31365;48.858;8.530;2023-05-10T15:18:03;61.75;38.37;77.29;;
45651;Laerm;31365;48.858;8.530;2023-05-10T15:20:31;65.79;44.47;80.40;;
45651;Laerm;31365;48.858;8.530;2023-05-10T15:22:59;65.21;53.28;82.77;;
45651;Laerm;31365;48.858;8.530;2023-05-10T15:25:27;67.49;53.15;81.72;;
45651;Laerm;31365;48.858;8.530;2023-05-10T15:27:57;65.52;44.87;79.16;;
45651;Laerm;31365;48.858;8.530;2023-05-10T15:30:25;66.66;43.49;81.01;;
45651;Laerm;31365;48.858;8.530;2023-05-10T15:32:53;65.03;45.83;76.07;;
45651;Laerm;31365;48.858;8.530;2023-05-10T15:35:22;65.66;49.83;77.56;;
45651;Laerm;31365;48.858;8.530;2023-05-10T15:37:50;64.74;48.85;76.08;;
45651;Laerm;31365;48.858;8.530;2023-05-10T15:40:18;65.07;49.40;77.67;;
45651;Laerm;31365;48.858;8.530;2023-05-10T15:42:47;64.90;46.15;75.73;;
45651;Laerm;31365;48.858;8.530;2023-05-10T15:45:16;67.00;49.02;85.28;;
45651;Laerm;31365;48.858;8.530;2023-05-10T15:47:45;65.55;48.55;80.31;;
45651;Laerm;31365;48.858;8.530;2023-05-10T15:50:14;65.22;47.40;76.32;;
45651;Laerm;31365;48.858;8.530;2023-05-10T15:52:43;64.78;46.82;83.22;;
45651;Laerm;31365;48.858;8.530;2023-05-10T15:55:12;65.34;45.86;79.91;;
45651;Laerm;31365;48.858;8.530;2023-05-10T15:57:41;66.23;45.54;80.09;;
45651;Laerm;31365;48.858;8.530;2023-05-10T16:00:12;64.19;44.62;76.76;;
45651;Laerm;31365;48.858;8.530;2023-05-10T16:02:41;63.05;45.30;77.66;;
45651;Laerm;31365;48.858;8.530;2023-05-10T16:05:09;64.60;49.32;76.93;;
45651;Laerm;31365;48.858;8.530;2023-05-10T16:07:38;64.03;49.21;74.99;;
45651;Laerm;31365;48.858;8.530;2023-05-10T16:10:09;64.55;47.54;79.47;;
45651;Laerm;31365;48.858;8.530;2023-05-10T16:12:38;63.14;46.13;73.89;;
45651;Laerm;31365;48.858;8.530;2023-05-10T16:15:08;66.05;43.90;81.67;;
45651;Laerm;31365;48.858;8.530;2023-05-10T16:17:36;62.30;41.33;77.94;;
45651;Laerm;31365;48.858;8.530;2023-05-10T16:20:07;64.45;41.61;76.49;;
45651;Laerm;31365;48.858;8.530;2023-05-10T16:22:36;63.19;41.53;77.59;;
45651;Laerm;31365;48.858;8.530;2023-05-10T16:25:05;64.34;42.98;75.71;;
45651;Laerm;31365;48.858;8.530;2023-05-10T16:27:34;60.75;41.06;74.49;;
45651;Laerm;31365;48.858;8.530;2023-05-10T16:30:02;66.29;40.71;80.80;;
45651;Laerm;31365;48.858;8.530;2023-05-10T16:32:31;65.24;41.06;79.91;;
45651;Laerm;31365;48.858;8.530;2023-05-10T16:34:59;62.26;39.81;75.26;;